sensor_id;sensor_type;location;lat;lon;timestamp;P1;durP1;ratioP1;P2;durP2;ratioP2
17141;SDS011;32805;53.556;9.944;2023-01-28T00:00:50;2.15;;;1.08;;
17141;SDS011;32805;53.556;9.944;2023-01-28T00:03:18;2.55;;;0.95;;
17141;SDS011;32805;53.556;9.944;2023-01-28T00:05:45;1.23;;;1.00;;
17141;SDS011;32805;53.556;9.944;2023-01-28T00:08:14;2.38;;;0.93;;
17141;SDS011;32805;53.556;9.944;2023-01-28T00:10:42;1.23;;;1.00;;
17141;SDS011;32805;53.556;9.944;2023-01-28T00:13:10;1.88;;;1.05;;
17141;SDS011;32805;53.556;9.944;2023-01-28T00:15:39;2.63;;;1.33;;
17141;SDS011;32805;53.556;9.944;2023-01-28T00:18:07;2.38;;;1.30;;
17141;SDS011;32805;53.556;9.944;2023-01-28T00:20:35;1.67;;;1.20;;
17141;SDS011;32805;53.556;9.944;2023-01-28T00:23:02;2.03;;;0.90;;
17141;SDS011;32805;53.556;9.944;2023-01-28T00:25:32;1.85;;;1.02;;
17141;SDS011;32805;53.556;9.944;2023-01-28T00:27:59;1.88;;;1.00;;
17141;SDS011;32805;53.556;9.944;2023-01-28T00:30:27;3.53;;;1.00;;
17141;SDS011;32805;53.556;9.944;2023-01-28T00:32:54;2.22;;;1.08;;
17141;SDS011;32805;53.556;9.944;2023-01-28T00:35:22;2.80;;;1.35;;
17141;SDS011;32805;53.556;9.944;2023-01-28T00:37:50;0.98;;;0.90;;
17141;SDS011;32805;53.556;9.944;2023-01-28T00:40:18;1.63;;;1.20;;
17141;SDS011;32805;53.556;9.944;2023-01-28T00:42:47;1.45;;;1.10;;
17141;SDS011;32805;53.556;9.944;2023-01-28T00:45:14;1.52;;;1.02;;
17141;SDS011;32805;53.556;9.944;2023-01-28T00:47:42;2.15;;;1.10;;
17141;SDS011;32805;53.556;9.944;2023-01-28T00:50:10;2.42;;;1.23;;
17141;SDS011;32805;53.556;9.944;2023-01-28T00:52:38;2.13;;;0.93;;
17141;SDS011;32805;53.556;9.944;2023-01-28T00:55:06;1.48;;;0.95;;
17141;SDS011;32805;53.556;9.944;2023-01-28T00:57:34;1.20;;;0.90;;
17141;SDS011;32805;53.556;9.944;2023-01-28T01:00:04;1.50;;;1.10;;
17141;SDS011;32805;53.556;9.944;2023-01-28T01:02:33;4.22;;;1.42;;
17141;SDS011;32805;53.556;9.944;2023-01-28T01:05:01;1.73;;;1.15;;
17141;SDS011;32805;53.556;9.944;2023-01-28T01:07:29;2.28;;;1.15;;
17141;SDS011;32805;53.556;9.944;2023-01-28T01:10:07;1.90;;;1.17;;
17141;SDS011;32805;53.556;9.944;2023-01-28T01:12:36;1.17;;;1.08;;
17141;SDS011;32805;53.556;9.944;2023-01-28T01:15:06;3.60;;;1.42;;
17141;SDS011;32805;53.556;9.944;2023-01-28T01:17:36;1.92;;;1.20;;
17141;SDS011;32805;53.556;9.944;2023-01-28T01:20:06;2.20;;;1.40;;
17141;SDS011;32805;53.556;9.944;2023-01-28T01:22:35;2.25;;;1.40;;
17141;SDS011;32805;53.556;9.944;2023-01-28T01:25:03;1.92;;;1.10;;
17141;SDS011;32805;53.556;9.944;2023-01-28T01:27:32;4.80;;;1.40;;
17141;SDS011;32805;53.556;9.944;2023-01-28T01:29:59;1.58;;;1.25;;
17141;SDS011;32805;53.556;9.944;2023-01-28T01:32:29;1.80;;;1.30;;
17141;SDS011;32805;53.556;9.944;2023-01-28T01:34:58;1.30;;;1.08;;
17141;SDS011;32805;53.556;9.944;2023-01-28T01:37:25;1.95;;;1.23;;
17141;SDS011;32805;53.556;9.944;2023-01-28T01:39:54;1.77;;;1.40;;
17141;SDS011;32805;53.556;9.944;2023-01-28T01:42:22;2.13;;;1.00;;
17141;SDS011;32805;53.556;9.944;2023-01-28T01:44:55;3.17;;;1.50;;
17141;SDS011;32805;53.556;9.944;2023-01-28T01:47:27;2.85;;;1.30;;
17141;SDS011;32805;53.556;9.944;2023-01-28T01:50:03;1.42;;;1.20;;
17141;SDS011;32805;53.556;9.944;2023-01-28T01:52:37;2.15;;;1.42;;
17141;SDS011;32805;53.556;9.944;2023-01-28T01:55:08;1.38;;;1.08;;
17141;SDS011;32805;53.556;9.944;2023-01-28T01:57:39;2.42;;;1.30;;
17141;SDS011;32805;53.556;9.944;2023-01-28T02:00:09;1.45;;;1.33;;
17141;SDS011;32805;53.556;9.944;2023-01-28T02:02:42;1.77;;;1.50;;
17141;SDS011;32805;53.556;9.944;2023-01-28T02:05:12;3.70;;;1.63;;
17141;SDS011;32805;53.556;9.944;2023-01-28T02:07:43;2.30;;;1.30;;
17141;SDS011;32805;53.556;9.944;2023-01-28T02:10:13;2.17;;;1.35;;
17141;SDS011;32805;53.556;9.944;2023-01-28T02:12:41;1.15;;;1.05;;
17141;SDS011;32805;53.556;9.944;2023-01-28T02:15:12;1.83;;;1.50;;
17141;SDS011;32805;53.556;9.944;2023-01-28T02:17:44;2.15;;;1.50;;
17141;SDS011;32805;53.556;9.944;2023-01-28T02:20:14;3.22;;;1.45;;
17141;SDS011;32805;53.556;9.944;2023-01-28T02:23:05;2.55;;;1.52;;
17141;SDS011;32805;53.556;9.944;2023-01-28T02:26:02;2.80;;;1.67;;
17141;SDS011;32805;53.556;9.944;2023-01-28T02:28:51;3.00;;;2.08;;
17141;SDS011;32805;53.556;9.944;2023-01-28T02:31:26;3.70;;;1.67;;
17141;SDS011;32805;53.556;9.944;2023-01-28T02:34:01;2.58;;;1.40;;
17141;SDS011;32805;53.556;9.944;2023-01-28T02:36:35;2.40;;;1.55;;
17141;SDS011;32805;53.556;9.944;2023-01-28T02:39:11;4.05;;;1.45;;
17141;SDS011;32805;53.556;9.944;2023-01-28T02:41:47;2.72;;;1.20;;
17141;SDS011;32805;53.556;9.944;2023-01-28T02:44:21;3.88;;;1.55;;
17141;SDS011;32805;53.556;9.944;2023-01-28T02:46:50;2.03;;;1.40;;
17141;SDS011;32805;53.556;9.944;2023-01-28T02:49:38;2.17;;;1.52;;
17141;SDS011;32805;53.556;9.944;2023-01-28T02:55:30;1.95;;;1.15;;
17141;SDS011;32805;53.556;9.944;2023-01-28T02:58:06;1.88;;;1.30;;
17141;SDS011;32805;53.556;9.944;2023-01-28T03:00:45;2.50;;;1.30;;
17141;SDS011;32805;53.556;9.944;2023-01-28T03:03:17;1.40;;;1.30;;
17141;SDS011;32805;53.556;9.944;2023-01-28T03:05:52;1.95;;;1.60;;
17141;SDS011;32805;53.556;9.944;2023-01-28T03:08:33;3.58;;;1.40;;
17141;SDS011;32805;53.556;9.944;2023-01-28T03:11:22;2.63;;;1.80;;
17141;SDS011;32805;53.556;9.944;2023-01-28T03:14:08;1.98;;;1.38;;
17141;SDS011;32805;53.556;9.944;2023-01-28T03:16:56;3.30;;;1.83;;
17141;SDS011;32805;53.556;9.944;2023-01-28T03:19:44;1.92;;;1.20;;
17141;SDS011;32805;53.556;9.944;2023-01-28T03:22:30;2.92;;;1.50;;
17141;SDS011;32805;53.556;9.944;2023-01-28T03:25:18;3.13;;;1.60;;
17141;SDS011;32805;53.556;9.944;2023-01-28T03:28:06;4.10;;;1.85;;
17141;SDS011;32805;53.556;9.944;2023-01-28T03:30:59;1.95;;;1.60;;
17141;SDS011;32805;53.556;9.944;2023-01-28T03:33:52;2.15;;;1.80;;
17141;SDS011;32805;53.556;9.944;2023-01-28T03:36:38;2.53;;;1.60;;
17141;SDS011;32805;53.556;9.944;2023-01-28T03:39:39;2.25;;;1.70;;
17141;SDS011;32805;53.556;9.944;2023-01-28T03:42:10;2.25;;;1.65;;
17141;SDS011;32805;53.556;9.944;2023-01-28T03:44:50;1.73;;;1.30;;
17141;SDS011;32805;53.556;9.944;2023-01-28T03:47:19;1.73;;;1.30;;
17141;SDS011;32805;53.556;9.944;2023-01-28T03:49:50;3.33;;;1.70;;
17141;SDS011;32805;53.556;9.944;2023-01-28T03:52:21;2.20;;;1.50;;
17141;SDS011;32805;53.556;9.944;2023-01-28T03:54:51;2.50;;;1.83;;
17141;SDS011;32805;53.556;9.944;2023-01-28T03:57:20;3.78;;;1.70;;
17141;SDS011;32805;53.556;9.944;2023-01-28T03:59:49;2.60;;;1.70;;
17141;SDS011;32805;53.556;9.944;2023-01-28T04:02:18;1.65;;;1.45;;
17141;SDS011;32805;53.556;9.944;2023-01-28T04:04:51;2.72;;;1.77;;
17141;SDS011;32805;53.556;9.944;2023-01-28T04:07:18;2.25;;;1.52;;
17141;SDS011;32805;53.556;9.944;2023-01-28T04:10:05;2.55;;;1.65;;
17141;SDS011;32805;53.556;9.944;2023-01-28T04:12:44;2.08;;;1.88;;
17141;SDS011;32805;53.556;9.944;2023-01-28T04:15:16;4.22;;;1.80;;
17141;SDS011;32805;53.556;9.944;2023-01-28T04:17:45;3.33;;;1.80;;
17141;SDS011;32805;53.556;9.944;2023-01-28T04:20:25;3.13;;;1.42;;
17141;SDS011;32805;53.556;9.944;2023-01-28T04:22:55;2.65;;;1.75;;
17141;SDS011;32805;53.556;9.944;2023-01-28T04:25:23;3.47;;;1.60;;
17141;SDS011;32805;53.556;9.944;2023-01-28T04:27:51;1.90;;;1.60;;
17141;SDS011;32805;53.556;9.944;2023-01-28T04:30:20;2.83;;;1.50;;
17141;SDS011;32805;53.556;9.944;2023-01-28T04:33:14;1.67;;;1.15;;
17141;SDS011;32805;53.556;9.944;2023-01-28T04:35:54;2.35;;;1.77;;
17141;SDS011;32805;53.556;9.944;2023-01-28T04:38:41;2.60;;;1.52;;
17141;SDS011;32805;53.556;9.944;2023-01-28T04:41:29;2.45;;;1.80;;
17141;SDS011;32805;53.556;9.944;2023-01-28T04:44:03;2.45;;;2.03;;
17141;SDS011;32805;53.556;9.944;2023-01-28T04:46:49;2.47;;;1.70;;
17141;SDS011;32805;53.556;9.944;2023-01-28T04:49:40;4.30;;;1.80;;
17141;SDS011;32805;53.556;9.944;2023-01-28T04:52:13;2.30;;;1.90;;
17141;SDS011;32805;53.556;9.944;2023-01-28T04:55:04;1.92;;;1.75;;
17141;SDS011;32805;53.556;9.944;2023-01-28T04:57:32;3.30;;;2.00;;
17141;SDS011;32805;53.556;9.944;2023-01-28T05:00:00;2.22;;;2.03;;
17141;SDS011;32805;53.556;9.944;2023-01-28T05:02:28;2.88;;;2.35;;
17141;SDS011;32805;53.556;9.944;2023-01-28T05:04:55;2.95;;;2.40;;
17141;SDS011;32805;53.556;9.944;2023-01-28T05:07:52;3.17;;;2.17;;
17141;SDS011;32805;53.556;9.944;2023-01-28T05:10:20;2.65;;;2.33;;
17141;SDS011;32805;53.556;9.944;2023-01-28T05:12:48;3.58;;;2.70;;
17141;SDS011;32805;53.556;9.944;2023-01-28T05:15:17;5.50;;;2.70;;
17141;SDS011;32805;53.556;9.944;2023-01-28T05:17:46;3.50;;;2.72;;
17141;SDS011;32805;53.556;9.944;2023-01-28T05:20:17;4.53;;;2.55;;
17141;SDS011;32805;53.556;9.944;2023-01-28T05:22:47;2.85;;;2.53;;
17141;SDS011;32805;53.556;9.944;2023-01-28T05:25:19;5.45;;;3.33;;
17141;SDS011;32805;53.556;9.944;2023-01-28T05:27:50;3.85;;;3.22;;
17141;SDS011;32805;53.556;9.944;2023-01-28T05:30:19;3.35;;;2.55;;
17141;SDS011;32805;53.556;9.944;2023-01-28T05:32:47;3.33;;;3.03;;
17141;SDS011;32805;53.556;9.944;2023-01-28T05:35:19;4.88;;;2.90;;
17141;SDS011;32805;53.556;9.944;2023-01-28T05:37:47;3.28;;;2.75;;
17141;SDS011;32805;53.556;9.944;2023-01-28T05:40:16;5.93;;;3.30;;
17141;SDS011;32805;53.556;9.944;2023-01-28T05:42:45;6.30;;;3.55;;
17141;SDS011;32805;53.556;9.944;2023-01-28T05:45:24;7.28;;;3.67;;
17141;SDS011;32805;53.556;9.944;2023-01-28T05:48:21;6.40;;;3.90;;
17141;SDS011;32805;53.556;9.944;2023-01-28T05:51:09;6.00;;;3.33;;
17141;SDS011;32805;53.556;9.944;2023-01-28T05:53:40;19.42;;;8.25;;
17141;SDS011;32805;53.556;9.944;2023-01-28T05:56:08;8.00;;;4.53;;
17141;SDS011;32805;53.556;9.944;2023-01-28T05:58:38;3.55;;;3.25;;
17141;SDS011;32805;53.556;9.944;2023-01-28T06:01:06;3.58;;;3.25;;
17141;SDS011;32805;53.556;9.944;2023-01-28T06:03:38;4.07;;;3.45;;
17141;SDS011;32805;53.556;9.944;2023-01-28T06:06:06;13.52;;;6.32;;
17141;SDS011;32805;53.556;9.944;2023-01-28T06:08:34;17.13;;;6.47;;
17141;SDS011;32805;53.556;9.944;2023-01-28T06:11:02;11.95;;;5.55;;
17141;SDS011;32805;53.556;9.944;2023-01-28T06:13:32;7.25;;;4.78;;
17141;SDS011;32805;53.556;9.944;2023-01-28T06:16:14;5.30;;;4.80;;
17141;SDS011;32805;53.556;9.944;2023-01-28T06:18:58;7.07;;;4.38;;
17141;SDS011;32805;53.556;9.944;2023-01-28T06:21:26;6.22;;;4.78;;
17141;SDS011;32805;53.556;9.944;2023-01-28T06:23:56;4.53;;;4.10;;
17141;SDS011;32805;53.556;9.944;2023-01-28T06:26:24;5.45;;;4.13;;
17141;SDS011;32805;53.556;9.944;2023-01-28T06:28:51;7.82;;;5.45;;
17141;SDS011;32805;53.556;9.944;2023-01-28T06:31:20;6.07;;;4.88;;
17141;SDS011;32805;53.556;9.944;2023-01-28T06:33:48;5.68;;;4.45;;
17141;SDS011;32805;53.556;9.944;2023-01-28T06:36:16;5.47;;;4.78;;
17141;SDS011;32805;53.556;9.944;2023-01-28T06:38:43;4.55;;;4.05;;
17141;SDS011;32805;53.556;9.944;2023-01-28T06:41:11;7.30;;;4.78;;
17141;SDS011;32805;53.556;9.944;2023-01-28T06:43:39;5.47;;;4.50;;
17141;SDS011;32805;53.556;9.944;2023-01-28T06:46:06;5.80;;;5.20;;
17141;SDS011;32805;53.556;9.944;2023-01-28T06:48:35;5.47;;;4.85;;
17141;SDS011;32805;53.556;9.944;2023-01-28T06:51:03;6.07;;;5.22;;
17141;SDS011;32805;53.556;9.944;2023-01-28T06:53:31;5.95;;;5.20;;
17141;SDS011;32805;53.556;9.944;2023-01-28T06:55:58;6.85;;;5.50;;
17141;SDS011;32805;53.556;9.944;2023-01-28T06:58:26;6.13;;;5.28;;
17141;SDS011;32805;53.556;9.944;2023-01-28T07:00:53;6.28;;;5.65;;
17141;SDS011;32805;53.556;9.944;2023-01-28T07:03:21;5.93;;;5.32;;
17141;SDS011;32805;53.556;9.944;2023-01-28T07:05:50;5.63;;;5.07;;
17141;SDS011;32805;53.556;9.944;2023-01-28T07:08:18;9.45;;;5.53;;
17141;SDS011;32805;53.556;9.944;2023-01-28T07:10:45;5.25;;;4.78;;
17141;SDS011;32805;53.556;9.944;2023-01-28T07:13:14;5.75;;;5.18;;
17141;SDS011;32805;53.556;9.944;2023-01-28T07:15:42;5.93;;;5.30;;
17141;SDS011;32805;53.556;9.944;2023-01-28T07:18:09;6.28;;;5.53;;
17141;SDS011;32805;53.556;9.944;2023-01-28T07:20:37;6.28;;;5.55;;
17141;SDS011;32805;53.556;9.944;2023-01-28T07:23:06;8.50;;;6.20;;
17141;SDS011;32805;53.556;9.944;2023-01-28T07:25:33;8.13;;;6.20;;
17141;SDS011;32805;53.556;9.944;2023-01-28T07:28:01;11.38;;;6.88;;
17141;SDS011;32805;53.556;9.944;2023-01-28T07:30:29;7.15;;;5.90;;
17141;SDS011;32805;53.556;9.944;2023-01-28T07:32:57;9.20;;;5.78;;
17141;SDS011;32805;53.556;9.944;2023-01-28T07:35:25;10.15;;;6.40;;
17141;SDS011;32805;53.556;9.944;2023-01-28T07:37:53;6.53;;;5.80;;
17141;SDS011;32805;53.556;9.944;2023-01-28T07:40:23;9.00;;;6.53;;
17141;SDS011;32805;53.556;9.944;2023-01-28T07:42:52;7.60;;;5.57;;
17141;SDS011;32805;53.556;9.944;2023-01-28T07:45:21;7.68;;;5.88;;
17141;SDS011;32805;53.556;9.944;2023-01-28T07:47:52;7.07;;;6.38;;
17141;SDS011;32805;53.556;9.944;2023-01-28T07:50:21;7.50;;;6.68;;
17141;SDS011;32805;53.556;9.944;2023-01-28T07:52:49;7.43;;;6.63;;
17141;SDS011;32805;53.556;9.944;2023-01-28T07:55:17;7.68;;;6.82;;
17141;SDS011;32805;53.556;9.944;2023-01-28T07:57:52;7.35;;;6.65;;
17141;SDS011;32805;53.556;9.944;2023-01-28T08:00:22;9.02;;;7.05;;
17141;SDS011;32805;53.556;9.944;2023-01-28T08:02:54;10.30;;;6.97;;
17141;SDS011;32805;53.556;9.944;2023-01-28T08:05:22;8.00;;;7.05;;
17141;SDS011;32805;53.556;9.944;2023-01-28T08:07:52;8.63;;;7.50;;
17141;SDS011;32805;53.556;9.944;2023-01-28T08:10:20;9.48;;;7.05;;
17141;SDS011;32805;53.556;9.944;2023-01-28T08:12:52;10.57;;;7.90;;
17141;SDS011;32805;53.556;9.944;2023-01-28T08:15:21;9.98;;;7.40;;
17141;SDS011;32805;53.556;9.944;2023-01-28T08:17:49;11.23;;;7.82;;
17141;SDS011;32805;53.556;9.944;2023-01-28T08:20:17;10.00;;;7.93;;
17141;SDS011;32805;53.556;9.944;2023-01-28T08:22:45;10.10;;;7.28;;
17141;SDS011;32805;53.556;9.944;2023-01-28T08:25:12;8.60;;;6.90;;
17141;SDS011;32805;53.556;9.944;2023-01-28T08:27:40;9.95;;;7.07;;
17141;SDS011;32805;53.556;9.944;2023-01-28T08:30:10;8.25;;;7.10;;
17141;SDS011;32805;53.556;9.944;2023-01-28T08:32:38;11.18;;;7.20;;
17141;SDS011;32805;53.556;9.944;2023-01-28T08:35:06;8.93;;;7.65;;
17141;SDS011;32805;53.556;9.944;2023-01-28T08:37:34;9.27;;;6.90;;
17141;SDS011;32805;53.556;9.944;2023-01-28T08:40:02;8.90;;;6.45;;
17141;SDS011;32805;53.556;9.944;2023-01-28T08:42:30;9.43;;;8.38;;
17141;SDS011;32805;53.556;9.944;2023-01-28T08:44:58;8.95;;;8.05;;
17141;SDS011;32805;53.556;9.944;2023-01-28T08:47:27;10.07;;;7.35;;
17141;SDS011;32805;53.556;9.944;2023-01-28T08:49:54;9.38;;;6.88;;
17141;SDS011;32805;53.556;9.944;2023-01-28T08:52:22;10.07;;;7.35;;
17141;SDS011;32805;53.556;9.944;2023-01-28T08:54:50;10.05;;;7.15;;
17141;SDS011;32805;53.556;9.944;2023-01-28T08:57:17;9.15;;;7.38;;
17141;SDS011;32805;53.556;9.944;2023-01-28T08:59:45;8.30;;;7.50;;
17141;SDS011;32805;53.556;9.944;2023-01-28T09:02:13;9.20;;;7.13;;
17141;SDS011;32805;53.556;9.944;2023-01-28T09:04:57;10.32;;;7.82;;
17141;SDS011;32805;53.556;9.944;2023-01-28T09:07:25;8.27;;;7.10;;
17141;SDS011;32805;53.556;9.944;2023-01-28T09:09:53;8.93;;;6.75;;
17141;SDS011;32805;53.556;9.944;2023-01-28T09:12:20;9.82;;;8.00;;
17141;SDS011;32805;53.556;9.944;2023-01-28T09:14:48;7.93;;;7.00;;
17141;SDS011;32805;53.556;9.944;2023-01-28T09:17:17;8.35;;;7.18;;
17141;SDS011;32805;53.556;9.944;2023-01-28T09:19:45;8.85;;;7.05;;
17141;SDS011;32805;53.556;9.944;2023-01-28T09:22:13;10.07;;;6.80;;
17141;SDS011;32805;53.556;9.944;2023-01-28T09:24:41;9.40;;;7.35;;
17141;SDS011;32805;53.556;9.944;2023-01-28T09:27:10;8.88;;;7.63;;
17141;SDS011;32805;53.556;9.944;2023-01-28T09:29:37;8.25;;;7.38;;
17141;SDS011;32805;53.556;9.944;2023-01-28T09:32:05;9.75;;;7.35;;
17141;SDS011;32805;53.556;9.944;2023-01-28T09:34:33;7.72;;;6.90;;
17141;SDS011;32805;53.556;9.944;2023-01-28T09:37:01;9.65;;;6.15;;
17141;SDS011;32805;53.556;9.944;2023-01-28T09:39:31;7.25;;;5.80;;
17141;SDS011;32805;53.556;9.944;2023-01-28T09:42:02;6.45;;;5.85;;
17141;SDS011;32805;53.556;9.944;2023-01-28T09:44:48;5.35;;;4.88;;
17141;SDS011;32805;53.556;9.944;2023-01-28T09:47:26;7.13;;;4.88;;
17141;SDS011;32805;53.556;9.944;2023-01-28T09:49:57;5.95;;;5.45;;
17141;SDS011;32805;53.556;9.944;2023-01-28T09:52:38;8.02;;;5.57;;
17141;SDS011;32805;53.556;9.944;2023-01-28T09:55:11;6.80;;;4.78;;
17141;SDS011;32805;53.556;9.944;2023-01-28T09:57:44;5.53;;;5.00;;
17141;SDS011;32805;53.556;9.944;2023-01-28T10:00:14;4.68;;;3.85;;
17141;SDS011;32805;53.556;9.944;2023-01-28T10:02:49;4.90;;;4.32;;
17141;SDS011;32805;53.556;9.944;2023-01-28T10:05:30;5.93;;;4.35;;
17141;SDS011;32805;53.556;9.944;2023-01-28T10:08:10;7.45;;;5.10;;
17141;SDS011;32805;53.556;9.944;2023-01-28T10:10:54;6.72;;;5.18;;
17141;SDS011;32805;53.556;9.944;2023-01-28T10:13:27;7.60;;;5.38;;
17141;SDS011;32805;53.556;9.944;2023-01-28T10:16:08;8.02;;;5.43;;
17141;SDS011;32805;53.556;9.944;2023-01-28T10:18:44;6.30;;;5.70;;
17141;SDS011;32805;53.556;9.944;2023-01-28T10:21:15;7.20;;;5.45;;
17141;SDS011;32805;53.556;9.944;2023-01-28T10:23:51;7.30;;;6.15;;
17141;SDS011;32805;53.556;9.944;2023-01-28T10:26:26;6.97;;;5.70;;
17141;SDS011;32805;53.556;9.944;2023-01-28T10:28:59;6.78;;;6.03;;
17141;SDS011;32805;53.556;9.944;2023-01-28T10:31:31;6.70;;;6.00;;
17141;SDS011;32805;53.556;9.944;2023-01-28T10:34:04;6.78;;;6.05;;
17141;SDS011;32805;53.556;9.944;2023-01-28T10:36:32;6.72;;;6.00;;
17141;SDS011;32805;53.556;9.944;2023-01-28T10:39:00;7.28;;;6.57;;
17141;SDS011;32805;53.556;9.944;2023-01-28T10:41:29;7.25;;;6.53;;
17141;SDS011;32805;53.556;9.944;2023-01-28T10:43:58;8.73;;;6.93;;
17141;SDS011;32805;53.556;9.944;2023-01-28T10:46:27;7.25;;;6.57;;
17141;SDS011;32805;53.556;9.944;2023-01-28T10:48:59;9.52;;;7.00;;
17141;SDS011;32805;53.556;9.944;2023-01-28T10:51:33;9.75;;;7.80;;
17141;SDS011;32805;53.556;9.944;2023-01-28T10:54:02;10.35;;;7.70;;
17141;SDS011;32805;53.556;9.944;2023-01-28T10:56:45;12.85;;;7.20;;
17141;SDS011;32805;53.556;9.944;2023-01-28T10:59:18;8.98;;;7.63;;
17141;SDS011;32805;53.556;9.944;2023-01-28T11:01:48;8.77;;;6.53;;
17141;SDS011;32805;53.556;9.944;2023-01-28T11:04:18;10.52;;;6.63;;
17141;SDS011;32805;53.556;9.944;2023-01-28T11:06:53;9.18;;;7.20;;
17141;SDS011;32805;53.556;9.944;2023-01-28T11:09:23;15.60;;;8.70;;
17141;SDS011;32805;53.556;9.944;2023-01-28T11:11:53;13.57;;;9.07;;
17141;SDS011;32805;53.556;9.944;2023-01-28T11:14:22;9.65;;;7.32;;
17141;SDS011;32805;53.556;9.944;2023-01-28T11:16:51;11.38;;;8.55;;
17141;SDS011;32805;53.556;9.944;2023-01-28T11:19:21;12.40;;;8.55;;
17141;SDS011;32805;53.556;9.944;2023-01-28T11:21:55;11.85;;;8.55;;
17141;SDS011;32805;53.556;9.944;2023-01-28T11:24:25;12.45;;;7.90;;
17141;SDS011;32805;53.556;9.944;2023-01-28T11:26:58;10.73;;;7.38;;
17141;SDS011;32805;53.556;9.944;2023-01-28T11:29:38;11.20;;;8.65;;
17141;SDS011;32805;53.556;9.944;2023-01-28T11:32:15;11.23;;;8.25;;
17141;SDS011;32805;53.556;9.944;2023-01-28T11:34:47;9.35;;;7.57;;
17141;SDS011;32805;53.556;9.944;2023-01-28T11:37:16;10.48;;;7.30;;
17141;SDS011;32805;53.556;9.944;2023-01-28T11:39:48;10.20;;;8.18;;
17141;SDS011;32805;53.556;9.944;2023-01-28T11:42:17;9.50;;;7.63;;
17141;SDS011;32805;53.556;9.944;2023-01-28T11:44:47;9.82;;;7.72;;
17141;SDS011;32805;53.556;9.944;2023-01-28T11:47:19;12.55;;;9.20;;
17141;SDS011;32805;53.556;9.944;2023-01-28T11:50:03;11.45;;;7.45;;
17141;SDS011;32805;53.556;9.944;2023-01-28T11:52:51;11.93;;;8.63;;
17141;SDS011;32805;53.556;9.944;2023-01-28T11:55:45;12.23;;;8.48;;
17141;SDS011;32805;53.556;9.944;2023-01-28T11:58:25;10.95;;;8.60;;
17141;SDS011;32805;53.556;9.944;2023-01-28T12:00:59;11.40;;;8.07;;
17141;SDS011;32805;53.556;9.944;2023-01-28T12:03:37;11.95;;;9.10;;
17141;SDS011;32805;53.556;9.944;2023-01-28T12:06:16;10.35;;;7.80;;
17141;SDS011;32805;53.556;9.944;2023-01-28T12:08:56;16.00;;;9.60;;
17141;SDS011;32805;53.556;9.944;2023-01-28T12:11:35;12.55;;;8.85;;
17141;SDS011;32805;53.556;9.944;2023-01-28T12:14:34;12.90;;;8.98;;
17141;SDS011;32805;53.556;9.944;2023-01-28T12:17:13;9.77;;;8.40;;
17141;SDS011;32805;53.556;9.944;2023-01-28T12:19:53;10.02;;;8.00;;
17141;SDS011;32805;53.556;9.944;2023-01-28T12:22:42;12.57;;;9.00;;
17141;SDS011;32805;53.556;9.944;2023-01-28T12:25:25;10.70;;;8.20;;
17141;SDS011;32805;53.556;9.944;2023-01-28T12:28:02;9.20;;;7.60;;
17141;SDS011;32805;53.556;9.944;2023-01-28T12:30:42;10.70;;;8.38;;
17141;SDS011;32805;53.556;9.944;2023-01-28T12:33:29;16.52;;;10.73;;
17141;SDS011;32805;53.556;9.944;2023-01-28T12:36:20;11.65;;;8.52;;
17141;SDS011;32805;53.556;9.944;2023-01-28T12:39:00;15.52;;;9.25;;
17141;SDS011;32805;53.556;9.944;2023-01-28T12:41:37;12.55;;;9.02;;
17141;SDS011;32805;53.556;9.944;2023-01-28T12:44:09;13.07;;;9.25;;
17141;SDS011;32805;53.556;9.944;2023-01-28T12:46:43;10.95;;;9.07;;
17141;SDS011;32805;53.556;9.944;2023-01-28T12:49:13;12.63;;;8.52;;
17141;SDS011;32805;53.556;9.944;2023-01-28T12:51:48;11.30;;;8.63;;
17141;SDS011;32805;53.556;9.944;2023-01-28T12:54:21;12.40;;;9.48;;
17141;SDS011;32805;53.556;9.944;2023-01-28T12:56:55;12.18;;;9.07;;
17141;SDS011;32805;53.556;9.944;2023-01-28T12:59:24;12.50;;;8.93;;
17141;SDS011;32805;53.556;9.944;2023-01-28T13:01:59;12.80;;;9.20;;
17141;SDS011;32805;53.556;9.944;2023-01-28T13:04:33;11.70;;;8.18;;
17141;SDS011;32805;53.556;9.944;2023-01-28T13:07:09;13.88;;;10.48;;
17141;SDS011;32805;53.556;9.944;2023-01-28T13:09:44;13.38;;;10.23;;
17141;SDS011;32805;53.556;9.944;2023-01-28T13:12:16;15.18;;;10.48;;
17141;SDS011;32805;53.556;9.944;2023-01-28T13:14:47;13.35;;;10.38;;
17141;SDS011;32805;53.556;9.944;2023-01-28T13:17:25;14.60;;;9.85;;
17141;SDS011;32805;53.556;9.944;2023-01-28T13:19:54;13.93;;;9.93;;
17141;SDS011;32805;53.556;9.944;2023-01-28T13:22:27;13.70;;;9.50;;
17141;SDS011;32805;53.556;9.944;2023-01-28T13:24:57;14.25;;;9.68;;
17141;SDS011;32805;53.556;9.944;2023-01-28T13:27:39;14.75;;;10.18;;
17141;SDS011;32805;53.556;9.944;2023-01-28T13:30:21;14.95;;;10.30;;
17141;SDS011;32805;53.556;9.944;2023-01-28T13:32:56;15.40;;;9.90;;
17141;SDS011;32805;53.556;9.944;2023-01-28T13:35:30;14.00;;;10.82;;
17141;SDS011;32805;53.556;9.944;2023-01-28T13:38:04;16.48;;;11.07;;
17141;SDS011;32805;53.556;9.944;2023-01-28T13:40:34;16.40;;;11.55;;
17141;SDS011;32805;53.556;9.944;2023-01-28T13:43:03;16.13;;;11.32;;
17141;SDS011;32805;53.556;9.944;2023-01-28T13:45:32;16.38;;;10.93;;
17141;SDS011;32805;53.556;9.944;2023-01-28T13:48:12;18.15;;;11.80;;
17141;SDS011;32805;53.556;9.944;2023-01-28T13:50:48;18.42;;;12.18;;
17141;SDS011;32805;53.556;9.944;2023-01-28T13:53:21;14.15;;;10.65;;
17141;SDS011;32805;53.556;9.944;2023-01-28T13:55:57;12.95;;;10.48;;
17141;SDS011;32805;53.556;9.944;2023-01-28T13:58:44;15.15;;;10.32;;
17141;SDS011;32805;53.556;9.944;2023-01-28T14:01:42;16.33;;;10.60;;
17141;SDS011;32805;53.556;9.944;2023-01-28T14:04:59;16.38;;;9.82;;
17141;SDS011;32805;53.556;9.944;2023-01-28T14:07:48;15.05;;;10.85;;
17141;SDS011;32805;53.556;9.944;2023-01-28T14:10:40;16.42;;;11.85;;
17141;SDS011;32805;53.556;9.944;2023-01-28T14:13:30;11.60;;;9.20;;
17141;SDS011;32805;53.556;9.944;2023-01-28T14:16:07;12.88;;;9.77;;
17141;SDS011;32805;53.556;9.944;2023-01-28T14:18:46;13.38;;;9.95;;
17141;SDS011;32805;53.556;9.944;2023-01-28T14:21:17;15.70;;;11.23;;
17141;SDS011;32805;53.556;9.944;2023-01-28T14:23:47;13.77;;;10.63;;
17141;SDS011;32805;53.556;9.944;2023-01-28T14:26:33;13.43;;;10.30;;
17141;SDS011;32805;53.556;9.944;2023-01-28T14:29:12;12.75;;;10.10;;
17141;SDS011;32805;53.556;9.944;2023-01-28T14:31:46;12.63;;;9.70;;
17141;SDS011;32805;53.556;9.944;2023-01-28T14:34:17;16.40;;;10.50;;
17141;SDS011;32805;53.556;9.944;2023-01-28T14:36:51;13.07;;;9.90;;
17141;SDS011;32805;53.556;9.944;2023-01-28T14:39:23;16.70;;;10.68;;
17141;SDS011;32805;53.556;9.944;2023-01-28T14:41:54;15.93;;;10.93;;
17141;SDS011;32805;53.556;9.944;2023-01-28T14:44:29;17.15;;;10.23;;
17141;SDS011;32805;53.556;9.944;2023-01-28T14:50:00;14.20;;;10.70;;
17141;SDS011;32805;53.556;9.944;2023-01-28T14:52:43;14.27;;;9.90;;
17141;SDS011;32805;53.556;9.944;2023-01-28T14:55:23;16.75;;;10.30;;
17141;SDS011;32805;53.556;9.944;2023-01-28T14:57:58;16.95;;;11.13;;
17141;SDS011;32805;53.556;9.944;2023-01-28T15:00:31;16.40;;;11.85;;
17141;SDS011;32805;53.556;9.944;2023-01-28T15:03:07;14.32;;;10.02;;
17141;SDS011;32805;53.556;9.944;2023-01-28T15:05:59;18.50;;;10.68;;
17141;SDS011;32805;53.556;9.944;2023-01-28T15:08:29;13.63;;;10.05;;
17141;SDS011;32805;53.556;9.944;2023-01-28T15:10:57;18.88;;;12.88;;
17141;SDS011;32805;53.556;9.944;2023-01-28T15:13:28;18.48;;;11.18;;
17141;SDS011;32805;53.556;9.944;2023-01-28T15:15:58;18.45;;;11.68;;
17141;SDS011;32805;53.556;9.944;2023-01-28T15:18:28;15.75;;;10.95;;
17141;SDS011;32805;53.556;9.944;2023-01-28T15:20:58;16.15;;;10.90;;
17141;SDS011;32805;53.556;9.944;2023-01-28T15:23:28;18.50;;;11.38;;
17141;SDS011;32805;53.556;9.944;2023-01-28T15:26:03;16.33;;;10.82;;